Time;durP1;ratioP1;P1;durP2;ratioP2;P2;SDS_P1;SDS_P2;PMS_P1;PMS_P2;Temp;Humidity;BMP_temperature;BMP_pressure;BME280_temperature;BME280_humidity;BME280_pressure;Samples;Min_cycle;Max_cycle;Signal;HPM_P1;HPM_P2
2021/08/16 00:00:16;;;;;;;3.78;2.45;;;23.00;71.70;;;;;;5092504;28;20044;-36
2021/08/16 00:02:45;;;;;;;3.15;2.22;;;23.00;71.70;;;;;;5092529;28;20047;-36
2021/08/16 00:05:11;;;;;;;2.15;1.75;;;23.00;71.70;;;;;;5092193;28;20048;-39
2021/08/16 00:07:37;;;;;;;3.67;2.45;;;23.00;71.70;;;;;;5091770;28;20071;-39
2021/08/16 00:10:04;;;;;;;2.35;2.03;;;23.00;71.80;;;;;;5092324;28;20133;-38
2021/08/16 00:12:31;;;;;;;2.53;1.90;;;23.00;71.70;;;;;;5092285;28;20506;-36
2021/08/16 00:14:57;;;;;;;2.60;2.03;;;23.00;71.70;;;;;;5092184;28;20068;-40
2021/08/16 00:17:24;;;;;;;2.30;1.98;;;23.00;71.80;;;;;;5092012;28;20036;-38
2021/08/16 00:19:50;;;;;;;2.47;1.90;;;23.00;71.70;;;;;;5091797;28;20051;-38
2021/08/16 00:22:16;;;;;;;2.67;1.73;;;23.00;71.80;;;;;;5092029;28;20561;-38
2021/08/16 00:24:42;;;;;;;3.50;1.73;;;23.00;71.70;;;;;;5091881;28;20134;-38
2021/08/16 00:27:07;;;;;;;1.90;1.70;;;23.00;71.80;;;;;;5091600;28;20462;-39
2021/08/16 00:29:33;;;;;;;1.60;1.35;;;23.00;71.80;;;;;;5091819;28;20152;-40
2021/08/16 00:31:59;;;;;;;1.98;1.77;;;22.90;71.70;;;;;;5091633;28;20040;-39
2021/08/16 00:34:24;;;;;;;3.13;1.80;;;22.90;71.70;;;;;;5091732;28;20109;-39
2021/08/16 00:36:51;;;;;;;2.13;1.52;;;22.90;71.70;;;;;;5091724;28;20048;-36
2021/08/16 00:39:17;;;;;;;2.17;1.77;;;22.90;71.70;;;;;;5091261;28;20048;-38
2021/08/16 00:41:46;;;;;;;1.77;1.60;;;22.90;71.70;;;;;;5092035;28;20477;-38
2021/08/16 00:44:12;;;;;;;2.20;1.60;;;22.90;71.70;;;;;;5092050;28;20111;-38
2021/08/16 00:46:38;;;;;;;2.28;1.70;;;22.90;71.70;;;;;;5091461;28;20043;-44
2021/08/16 00:49:04;;;;;;;2.90;2.13;;;22.90;71.70;;;;;;5091625;28;20036;-39
2021/08/16 00:51:31;;;;;;;2.15;1.42;;;22.90;71.70;;;;;;5092049;28;20040;-39
2021/08/16 00:53:58;;;;;;;2.58;1.55;;;22.90;71.70;;;;;;5091436;28;20123;-39
2021/08/16 00:56:27;;;;;;;1.90;1.60;;;22.90;71.70;;;;;;5091924;28;20044;-37
2021/08/16 00:59:07;;;;;;;1.90;1.40;;;22.90;71.70;;;;;;5091484;28;20392;-39
2021/08/16 01:01:32;;;;;;;1.88;1.40;;;22.90;71.70;;;;;;5091636;28;20048;-40
2021/08/16 01:04:00;;;;;;;3.28;1.60;;;22.90;71.80;;;;;;5095006;28;20047;-40
2021/08/16 01:06:26;;;;;;;2.00;1.55;;;22.90;71.80;;;;;;5096033;28;20059;-37
2021/08/16 01:08:52;;;;;;;2.53;1.60;;;22.90;71.80;;;;;;5093557;28;20040;-37
2021/08/16 01:11:19;;;;;;;2.00;1.58;;;22.90;71.80;;;;;;5096040;28;20047;-38
2021/08/16 01:13:46;;;;;;;2.60;1.65;;;22.90;71.80;;;;;;5095523;28;20048;-39
2021/08/16 01:16:13;;;;;;;2.90;1.85;;;22.90;71.80;;;;;;5095899;28;20466;-37
2021/08/16 01:18:39;;;;;;;2.97;1.60;;;22.90;71.80;;;;;;5095038;28;20443;-38
2021/08/16 01:21:10;;;;;;;2.10;1.50;;;22.90;71.80;;;;;;5095813;28;20041;-38
2021/08/16 01:23:38;;;;;;;2.55;1.42;;;22.90;71.80;;;;;;5095638;28;20404;-36
2021/08/16 01:26:04;;;;;;;2.70;1.63;;;22.90;71.80;;;;;;5094754;28;20055;-38
2021/08/16 01:28:29;;;;;;;2.10;1.42;;;22.90;71.80;;;;;;5094721;28;20040;-36
2021/08/16 01:30:58;;;;;;;1.98;1.50;;;22.90;71.90;;;;;;5093792;28;20044;-36
2021/08/16 01:33:24;;;;;;;1.48;1.38;;;22.90;71.80;;;;;;5095201;28;20048;-39
2021/08/16 01:35:51;;;;;;;3.13;1.90;;;22.90;71.80;;;;;;5095542;28;20075;-38
2021/08/16 01:38:20;;;;;;;2.97;1.60;;;22.90;71.80;;;;;;5095235;28;20044;-37
2021/08/16 01:40:47;;;;;;;3.80;1.70;;;22.90;71.80;;;;;;5093819;28;20071;-37
2021/08/16 01:43:13;;;;;;;3.70;1.67;;;22.90;71.90;;;;;;5095272;28;20044;-38
2021/08/16 01:45:39;;;;;;;2.72;1.75;;;22.90;71.90;;;;;;5095236;28;20055;-37
2021/08/16 01:48:05;;;;;;;2.47;1.60;;;22.90;71.80;;;;;;5095537;28;20127;-37
2021/08/16 01:50:31;;;;;;;2.65;1.65;;;22.90;71.90;;;;;;5095323;28;20601;-38
2021/08/16 01:52:57;;;;;;;2.53;1.40;;;22.90;71.90;;;;;;5095186;28;20069;-37
2021/08/16 01:55:23;;;;;;;2.08;1.80;;;22.90;71.90;;;;;;5095007;28;20040;-37
2021/08/16 01:57:49;;;;;;;2.28;1.60;;;22.90;71.90;;;;;;5094034;28;20036;-37
2021/08/16 02:00:15;;;;;;;2.08;1.50;;;22.90;71.90;;;;;;5094137;28;20472;-37
2021/08/16 02:02:41;;;;;;;1.77;1.50;;;22.90;71.90;;;;;;5094593;28;20055;-37
2021/08/16 02:05:08;;;;;;;2.20;1.60;;;22.90;71.90;;;;;;5095231;28;20109;-37
2021/08/16 02:07:33;;;;;;;2.08;1.45;;;22.90;71.90;;;;;;5094998;28;20051;-38
2021/08/16 02:09:59;;;;;;;2.50;1.55;;;22.90;71.90;;;;;;5094523;28;20063;-37
2021/08/16 02:12:25;;;;;;;2.20;1.60;;;22.90;71.90;;;;;;5094182;28;20060;-36
2021/08/16 02:14:51;;;;;;;2.30;1.50;;;22.90;71.90;;;;;;5093817;28;20048;-38
2021/08/16 02:17:16;;;;;;;1.90;1.63;;;22.90;71.90;;;;;;5094336;28;20063;-37
2021/08/16 02:19:44;;;;;;;1.70;1.40;;;22.80;71.90;;;;;;5094137;28;20472;-37
2021/08/16 02:22:10;;;;;;;2.13;1.60;;;22.80;71.90;;;;;;5094250;28;20047;-36
2021/08/16 02:24:35;;;;;;;2.03;1.63;;;22.80;71.90;;;;;;5094465;28;20500;-37
2021/08/16 02:27:01;;;;;;;2.35;1.92;;;22.90;71.90;;;;;;5094307;28;20593;-36
2021/08/16 02:29:27;;;;;;;2.50;1.77;;;22.80;71.90;;;;;;5093040;28;20062;-36
2021/08/16 02:31:52;;;;;;;2.33;1.58;;;22.90;72.00;;;;;;5093346;28;20042;-38
2021/08/16 02:34:18;;;;;;;1.83;1.40;;;22.80;71.90;;;;;;5094267;28;20039;-39
2021/08/16 02:36:44;;;;;;;2.00;1.40;;;22.80;71.90;;;;;;5093931;28;20055;-39
2021/08/16 02:39:09;;;;;;;3.38;1.60;;;22.80;71.90;;;;;;5094397;28;20097;-38
2021/08/16 02:41:36;;;;;;;1.80;1.30;;;22.80;71.90;;;;;;5093289;28;20052;-35
2021/08/16 02:44:02;;;;;;;2.10;1.40;;;22.80;71.90;;;;;;5093715;28;20052;-39
2021/08/16 02:46:28;;;;;;;2.03;1.52;;;22.80;71.90;;;;;;5093727;28;20054;-38
2021/08/16 02:48:54;;;;;;;2.22;1.48;;;22.80;71.90;;;;;;5094080;28;20044;-39
2021/08/16 02:51:20;;;;;;;2.05;1.50;;;22.80;71.90;;;;;;5093351;28;20047;-40
2021/08/16 02:53:46;;;;;;;2.50;1.67;;;22.80;71.90;;;;;;5093839;28;20101;-39
2021/08/16 02:56:12;;;;;;;1.55;1.45;;;22.80;72.00;;;;;;5094059;28;20051;-38
2021/08/16 02:58:37;;;;;;;2.30;1.55;;;22.80;72.00;;;;;;5093395;28;20039;-40
2021/08/16 03:01:03;;;;;;;1.38;1.20;;;22.80;72.00;;;;;;5092707;28;20529;-40
2021/08/16 03:03:29;;;;;;;2.45;1.50;;;22.80;72.00;;;;;;5094039;28;20044;-40
2021/08/16 03:05:54;;;;;;;1.77;1.48;;;22.80;72.00;;;;;;5093374;28;20036;-37
2021/08/16 03:08:21;;;;;;;2.05;1.40;;;22.80;71.90;;;;;;5093900;28;20044;-38
2021/08/16 03:10:46;;;;;;;1.80;1.55;;;22.80;72.00;;;;;;5092985;28;20054;-37
2021/08/16 03:13:12;;;;;;;2.40;1.63;;;22.80;72.00;;;;;;5093636;28;20495;-40
2021/08/16 03:15:38;;;;;;;1.60;1.30;;;22.80;72.00;;;;;;5092710;28;20048;-37
2021/08/16 03:18:04;;;;;;;1.77;1.45;;;22.80;72.00;;;;;;5093423;28;20491;-38
2021/08/16 03:20:30;;;;;;;2.00;1.45;;;22.80;72.00;;;;;;5093138;28;20118;-37
2021/08/16 03:22:56;;;;;;;1.90;1.33;;;22.80;72.60;;;;;;5092734;28;20048;-36
2021/08/16 03:25:22;;;;;;;2.40;1.60;;;22.80;72.00;;;;;;5092957;28;20078;-37
2021/08/16 03:27:48;;;;;;;3.05;1.58;;;22.80;72.00;;;;;;5092103;28;20076;-41
2021/08/16 03:30:15;;;;;;;1.35;1.17;;;22.80;72.00;;;;;;5092860;28;20040;-38
2021/08/16 03:32:40;;;;;;;1.98;1.45;;;22.70;71.90;;;;;;5091719;28;20192;-38
2021/08/16 03:35:07;;;;;;;2.13;1.40;;;22.80;72.00;;;;;;5093121;28;20052;-36
2021/08/16 03:37:35;;;;;;;2.72;1.52;;;22.80;72.00;;;;;;5092811;28;20043;-38
2021/08/16 03:40:02;;;;;;;1.75;1.50;;;22.80;72.00;;;;;;5092772;28;20079;-39
2021/08/16 03:42:29;;;;;;;3.05;1.50;;;22.80;72.00;;;;;;5092569;28;20542;-37
2021/08/16 03:44:54;;;;;;;2.15;1.40;;;22.80;72.10;;;;;;5093059;28;20448;-37
2021/08/16 03:47:20;;;;;;;2.03;1.48;;;22.80;72.00;;;;;;5092120;28;20035;-38
2021/08/16 03:49:47;;;;;;;2.20;1.65;;;22.80;72.10;;;;;;5093055;28;20040;-38
2021/08/16 03:52:12;;;;;;;1.95;1.42;;;22.80;72.00;;;;;;5092538;28;20047;-37
2021/08/16 03:54:38;;;;;;;1.60;1.30;;;22.80;72.00;;;;;;5092609;28;20488;-38
2021/08/16 03:57:04;;;;;;;2.50;1.60;;;22.80;72.10;;;;;;5092957;28;20127;-38
2021/08/16 03:59:30;;;;;;;1.67;1.33;;;22.80;72.00;;;;;;5092858;28;20079;-38
2021/08/16 04:01:55;;;;;;;1.63;1.25;;;22.80;72.00;;;;;;5092072;28;20043;-39
2021/08/16 04:04:21;;;;;;;1.75;1.40;;;22.80;72.00;;;;;;5092388;28;20118;-37
2021/08/16 04:06:48;;;;;;;2.13;1.35;;;22.80;72.10;;;;;;5093059;28;20044;-38
2021/08/16 04:09:15;;;;;;;3.05;1.70;;;22.70;72.00;;;;;;5092661;28;20127;-36
2021/08/16 04:11:41;;;;;;;2.13;1.35;;;22.80;72.10;;;;;;5091801;28;20147;-38
2021/08/16 04:14:06;;;;;;;2.03;1.30;;;22.80;72.10;;;;;;5091911;28;20119;-38
2021/08/16 04:16:32;;;;;;;2.05;1.50;;;22.80;72.10;;;;;;5091462;28;20055;-36
2021/08/16 04:18:58;;;;;;;1.60;1.20;;;22.70;72.00;;;;;;5090713;28;20044;-38
2021/08/16 04:21:25;;;;;;;1.48;1.20;;;22.80;72.10;;;;;;5091706;28;20502;-37
2021/08/16 04:23:51;;;;;;;1.50;1.40;;;22.70;72.00;;;;;;5092263;28;20047;-38
2021/08/16 04:26:17;;;;;;;1.50;1.15;;;22.80;72.10;;;;;;5092150;28;20070;-37
2021/08/16 04:28:44;;;;;;;1.45;1.10;;;22.70;72.00;;;;;;5092350;28;20097;-38
2021/08/16 04:31:09;;;;;;;2.10;1.30;;;22.80;72.10;;;;;;5091897;28;20508;-38
2021/08/16 04:33:35;;;;;;;2.25;1.33;;;22.80;72.10;;;;;;5091156;28;20080;-35
2021/08/16 04:36:01;;;;;;;1.27;1.13;;;22.80;72.10;;;;;;5079265;28;20044;-37
2021/08/16 04:38:27;;;;;;;1.60;1.42;;;22.80;72.10;;;;;;5092078;28;20048;-36
2021/08/16 04:40:53;;;;;;;2.30;1.35;;;22.80;72.10;;;;;;5091856;28;20056;-36
2021/08/16 04:43:20;;;;;;;1.33;1.17;;;22.70;72.00;;;;;;5091436;28;20135;-39
2021/08/16 04:45:46;;;;;;;1.80;1.27;;;22.70;72.10;;;;;;5091610;28;20089;-35
2021/08/16 04:48:12;;;;;;;1.80;1.50;;;22.70;72.00;;;;;;5091261;28;20111;-40
2021/08/16 04:50:39;;;;;;;1.70;1.35;;;22.70;72.00;;;;;;5091301;28;20072;-36
2021/08/16 04:53:05;;;;;;;1.65;1.40;;;22.70;72.70;;;;;;5091436;28;20061;-36
2021/08/16 04:55:30;;;;;;;1.83;1.35;;;22.70;72.00;;;;;;5091565;28;20052;-38
2021/08/16 04:57:56;;;;;;;1.20;1.05;;;22.70;72.10;;;;;;5092101;28;20044;-38
2021/08/16 05:00:25;;;;;;;1.98;1.20;;;22.70;72.10;;;;;;5090835;28;20444;-37
2021/08/16 05:02:52;;;;;;;1.40;1.25;;;22.80;72.10;;;;;;5091037;28;20055;-37
2021/08/16 05:05:19;;;;;;;1.45;1.20;;;22.70;72.10;;;;;;5091592;28;20055;-39
2021/08/16 05:07:52;;;;;;;2.08;1.33;;;22.70;72.00;;;;;;5091293;28;20048;-40
2021/08/16 05:10:23;;;;;;;2.13;1.08;;;22.70;72.00;;;;;;5091863;28;20131;-38
2021/08/16 05:12:51;;;;;;;1.67;1.23;;;22.70;72.00;;;;;;5091383;28;20040;-38
2021/08/16 05:15:17;;;;;;;1.45;1.17;;;22.70;72.00;;;;;;5091678;28;20044;-39
2021/08/16 05:17:44;;;;;;;1.52;1.30;;;22.70;72.00;;;;;;5091501;28;20488;-37
2021/08/16 05:20:10;;;;;;;2.53;1.30;;;22.70;72.10;;;;;;5091710;28;20139;-38
2021/08/16 05:22:42;;;;;;;1.20;1.08;;;22.70;72.00;;;;;;5091010;28;20047;-36
2021/08/16 05:25:12;;;;;;;2.95;1.30;;;22.70;72.10;;;;;;5090944;28;20040;-39
2021/08/16 05:27:54;;;;;;;2.58;1.27;;;22.70;72.00;;;;;;5091500;28;20369;-38
2021/08/16 05:30:39;;;;;;;2.08;0.98;;;22.70;72.10;;;;;;5091544;28;20104;-37
2021/08/16 05:33:05;;;;;;;1.30;1.20;;;22.70;72.00;;;;;;5091320;28;20825;-36
2021/08/16 05:35:37;;;;;;;1.50;1.40;;;22.70;72.10;;;;;;5091432;28;20193;-38
2021/08/16 05:38:03;;;;;;;2.60;1.40;;;22.70;72.10;;;;;;5090965;28;20131;-38
2021/08/16 05:40:29;;;;;;;1.48;1.25;;;22.70;72.10;;;;;;5090863;28;20059;-38
2021/08/16 05:42:54;;;;;;;1.52;1.15;;;22.70;72.10;;;;;;5091095;28;20044;-39
2021/08/16 05:45:20;;;;;;;1.52;1.13;;;22.70;72.70;;;;;;5091191;28;20063;-37
2021/08/16 05:47:46;;;;;;;1.75;1.20;;;22.70;72.10;;;;;;5091438;28;20079;-37
2021/08/16 05:50:13;;;;;;;2.58;1.40;;;22.70;72.00;;;;;;5092780;28;20444;-37
2021/08/16 05:52:38;;;;;;;1.75;1.30;;;22.70;72.10;;;;;;5094856;28;20184;-37
2021/08/16 05:55:05;;;;;;;1.17;1.08;;;22.70;72.10;;;;;;5094238;28;20040;-38
2021/08/16 05:57:31;;;;;;;1.60;1.15;;;22.70;72.10;;;;;;5094841;28;20044;-37
2021/08/16 05:59:57;;;;;;;1.52;1.27;;;22.70;72.00;;;;;;5094860;28;20050;-37
2021/08/16 06:02:23;;;;;;;1.02;0.93;;;22.70;72.10;;;;;;5094224;28;20496;-36
2021/08/16 06:04:48;;;;;;;1.60;1.13;;;22.70;72.10;;;;;;5094317;28;20125;-38
2021/08/16 06:07:14;;;;;;;1.70;1.17;;;22.70;72.10;;;;;;5094891;28;20070;-38
2021/08/16 06:09:40;;;;;;;1.60;1.10;;;22.70;72.10;;;;;;5094272;28;20048;-36
2021/08/16 06:12:06;;;;;;;1.73;1.00;;;22.70;72.10;;;;;;5094675;28;20044;-38
2021/08/16 06:14:32;;;;;;;1.92;1.20;;;22.60;72.00;;;;;;5094554;28;20139;-39
2021/08/16 06:16:58;;;;;;;2.03;1.10;;;22.60;72.00;;;;;;5094800;28;20051;-38
2021/08/16 06:19:24;;;;;;;1.38;1.25;;;22.60;72.00;;;;;;5094887;28;20126;-38
2021/08/16 06:21:50;;;;;;;1.92;1.17;;;22.70;72.10;;;;;;5094653;28;20044;-37
2021/08/16 06:24:17;;;;;;;1.73;1.20;;;22.70;72.10;;;;;;5093985;28;20136;-39
2021/08/16 06:26:42;;;;;;;1.65;1.20;;;22.70;72.10;;;;;;5094951;28;20118;-39
2021/08/16 06:29:08;;;;;;;1.85;1.33;;;22.70;72.10;;;;;;5092907;28;20036;-40
2021/08/16 06:31:34;;;;;;;1.75;1.20;;;22.60;72.10;;;;;;5094184;28;20048;-39
2021/08/16 06:34:00;;;;;;;1.63;1.13;;;22.60;72.10;;;;;;5094103;28;20451;-39
2021/08/16 06:36:26;;;;;;;1.60;1.10;;;22.70;72.10;;;;;;5094436;28;20123;-39
2021/08/16 06:38:52;;;;;;;1.40;1.10;;;22.70;72.10;;;;;;5093929;28;20139;-38
2021/08/16 06:41:18;;;;;;;1.50;1.40;;;22.70;72.10;;;;;;5093866;28;20105;-40
2021/08/16 06:43:48;;;;;;;1.50;0.90;;;22.60;72.10;;;;;;5093872;28;20119;-39
2021/08/16 06:46:15;;;;;;;1.15;0.98;;;22.60;72.00;;;;;;5094065;28;20059;-39
2021/08/16 06:48:41;;;;;;;1.55;1.17;;;22.60;72.00;;;;;;5094105;28;20472;-40
2021/08/16 06:51:06;;;;;;;1.48;1.15;;;22.60;72.00;;;;;;5093823;28;20040;-38
2021/08/16 06:53:32;;;;;;;1.55;1.10;;;22.60;72.10;;;;;;5094023;28;20457;-38
2021/08/16 06:55:58;;;;;;;0.82;0.80;;;22.60;72.10;;;;;;5093377;28;20048;-40
2021/08/16 06:58:26;;;;;;;1.73;1.05;;;22.60;72.00;;;;;;5093959;28;20044;-39
2021/08/16 07:00:52;;;;;;;1.83;1.00;;;22.60;72.10;;;;;;5093919;28;20060;-39
2021/08/16 07:03:18;;;;;;;1.23;0.98;;;22.60;72.10;;;;;;5088369;28;20410;-37
2021/08/16 07:05:45;;;;;;;1.60;1.10;;;22.60;72.00;;;;;;5092951;28;20085;-37
2021/08/16 07:08:12;;;;;;;1.23;1.13;;;22.60;72.00;;;;;;5093214;28;20051;-37
2021/08/16 07:10:38;;;;;;;2.08;1.20;;;22.60;72.00;;;;;;5092716;28;20048;-39
2021/08/16 07:13:04;;;;;;;1.77;1.30;;;22.60;72.10;;;;;;5092174;28;20204;-39
2021/08/16 07:15:30;;;;;;;1.20;1.02;;;22.60;72.10;;;;;;5092304;28;20048;-37
2021/08/16 07:17:57;;;;;;;1.98;1.13;;;22.60;72.10;;;;;;5092894;28;20044;-36
2021/08/16 07:20:22;;;;;;;1.63;1.00;;;22.70;72.10;;;;;;5092350;28;20060;-36
2021/08/16 07:22:48;;;;;;;1.27;1.10;;;22.60;72.10;;;;;;5093153;28;20192;-41
2021/08/16 07:25:14;;;;;;;1.23;1.13;;;22.60;72.10;;;;;;5091890;28;20047;-38
2021/08/16 07:27:41;;;;;;;1.10;0.93;;;22.60;72.00;;;;;;5092562;28;20044;-40
2021/08/16 07:30:07;;;;;;;1.15;0.90;;;22.60;72.00;;;;;;5092494;28;20144;-38
2021/08/16 07:32:33;;;;;;;1.40;1.00;;;22.60;72.00;;;;;;5092333;28;20048;-37
2021/08/16 07:34:59;;;;;;;1.05;0.90;;;22.60;72.10;;;;;;5083890;28;20044;-39
2021/08/16 07:37:24;;;;;;;1.50;1.25;;;22.60;72.00;;;;;;5092219;28;20044;-39
2021/08/16 07:39:50;;;;;;;1.73;0.90;;;22.60;72.10;;;;;;5092404;28;20048;-39
2021/08/16 07:42:18;;;;;;;1.90;1.30;;;22.60;72.10;;;;;;5092376;28;20040;-39
2021/08/16 07:44:44;;;;;;;1.27;1.05;;;22.60;72.10;;;;;;5092035;28;20058;-39
2021/08/16 07:47:09;;;;;;;1.20;1.05;;;22.60;72.10;;;;;;5092172;28;20130;-39
2021/08/16 07:49:35;;;;;;;1.35;1.08;;;22.60;72.10;;;;;;5092502;28;20039;-40
2021/08/16 07:52:01;;;;;;;2.00;1.10;;;22.60;72.70;;;;;;5092133;28;20044;-40
2021/08/16 07:54:28;;;;;;;6.13;1.65;;;22.60;72.10;;;;;;5090894;28;20113;-39
2021/08/16 07:56:53;;;;;;;2.65;1.48;;;22.60;71.80;;;;;;5092672;28;20040;-39
2021/08/16 07:59:19;;;;;;;2.05;1.45;;;22.60;71.70;;;;;;5091735;28;20130;-38
2021/08/16 08:01:46;;;;;;;3.35;1.30;;;22.60;71.80;;;;;;5092355;28;20511;-41
2021/08/16 08:04:12;;;;;;;2.55;1.40;;;22.60;71.70;;;;;;5091559;28;20047;-41
2021/08/16 08:06:38;;;;;;;2.50;1.30;;;22.50;71.70;;;;;;5092676;28;20044;-38
2021/08/16 08:09:04;;;;;;;2.67;1.27;;;22.60;71.70;;;;;;5092212;28;20036;-41
2021/08/16 08:11:30;;;;;;;3.63;1.38;;;22.60;71.70;;;;;;5092534;28;20051;-39
2021/08/16 08:13:56;;;;;;;3.90;1.20;;;22.60;71.70;;;;;;5091621;28;20089;-39
2021/08/16 08:16:21;;;;;;;3.25;1.30;;;22.60;71.80;;;;;;5091913;28;20413;-40
2021/08/16 08:18:47;;;;;;;2.33;1.30;;;22.60;71.70;;;;;;5092221;28;20162;-39
2021/08/16 08:21:13;;;;;;;1.52;1.40;;;22.50;71.70;;;;;;5092271;28;20472;-40
2021/08/16 08:23:39;;;;;;;3.10;1.33;;;22.60;71.80;;;;;;5091844;28;20043;-38
2021/08/16 08:26:05;;;;;;;2.10;1.10;;;22.60;71.80;;;;;;5092381;28;20044;-40
2021/08/16 08:28:31;;;;;;;2.63;1.30;;;22.60;71.80;;;;;;5092503;28;20480;-40
2021/08/16 08:30:57;;;;;;;2.47;1.50;;;22.60;71.80;;;;;;5092314;28;20067;-40
2021/08/16 08:33:23;;;;;;;2.38;1.30;;;22.60;71.80;;;;;;5092539;28;20459;-38
2021/08/16 08:35:50;;;;;;;3.05;1.30;;;22.60;71.80;;;;;;5091850;28;20116;-39
2021/08/16 08:38:16;;;;;;;2.58;1.40;;;22.60;71.80;;;;;;5092527;28;20054;-38
2021/08/16 08:40:43;;;;;;;1.63;1.15;;;22.60;71.80;;;;;;5091626;28;20516;-38
2021/08/16 08:43:13;;;;;;;2.05;1.30;;;22.60;71.80;;;;;;5092186;28;20504;-39
2021/08/16 08:45:41;;;;;;;3.63;1.23;;;22.60;71.80;;;;;;5090333;28;20044;-39
2021/08/16 08:48:08;;;;;;;3.83;1.40;;;22.60;71.80;;;;;;5091679;28;20063;-39
2021/08/16 08:50:34;;;;;;;1.70;0.82;;;22.60;71.80;;;;;;5090994;28;20040;-39
2021/08/16 08:53:01;;;;;;;2.25;1.30;;;22.60;71.80;;;;;;5091874;28;20046;-39
2021/08/16 08:55:28;;;;;;;1.42;1.23;;;22.60;71.80;;;;;;5091573;28;20044;-41
2021/08/16 08:57:54;;;;;;;1.73;1.05;;;22.60;71.80;;;;;;5092035;28;20044;-39
2021/08/16 09:00:20;;;;;;;2.53;1.45;;;22.60;71.80;;;;;;5091165;28;20330;-40
2021/08/16 09:03:00;;;;;;;2.50;1.40;;;22.60;71.80;;;;;;5091712;28;20070;-39
2021/08/16 09:05:28;;;;;;;1.23;0.80;;;22.60;71.80;;;;;;5091422;28;20048;-40
2021/08/16 09:07:55;;;;;;;1.70;1.40;;;22.60;71.80;;;;;;5091858;28;20071;-39
2021/08/16 09:10:25;;;;;;;1.42;1.05;;;22.60;71.80;;;;;;5090375;28;20048;-38
2021/08/16 09:12:59;;;;;;;1.70;1.10;;;22.60;71.80;;;;;;5091489;28;20044;-40
2021/08/16 09:15:26;;;;;;;1.48;1.00;;;22.60;71.80;;;;;;5091300;28;20100;-39
2021/08/16 09:17:53;;;;;;;1.45;1.10;;;22.60;71.80;;;;;;5091432;28;20496;-42
2021/08/16 09:20:29;;;;;;;2.47;1.33;;;22.60;71.80;;;;;;5090434;28;20508;-40
2021/08/16 09:23:01;;;;;;;1.17;1.08;;;22.60;71.70;;;;;;5091572;28;20086;-39
2021/08/16 09:25:30;;;;;;;2.45;1.15;;;22.60;71.80;;;;;;5093036;28;20143;-39
2021/08/16 09:27:57;;;;;;;1.23;1.08;;;22.60;71.70;;;;;;5095671;28;20040;-41
2021/08/16 09:30:35;;;;;;;1.58;1.15;;;22.60;71.70;;;;;;5095364;28;20044;-44
2021/08/16 09:33:15;;;;;;;2.15;1.20;;;22.60;71.70;;;;;;5090980;28;20055;-40
2021/08/16 09:35:58;;;;;;;1.95;1.00;;;22.70;71.70;;;;;;5094475;28;20119;-39
2021/08/16 09:38:40;;;;;;;1.73;1.20;;;22.70;71.70;;;;;;5094610;28;20050;-41
2021/08/16 09:41:19;;;;;;;1.33;1.08;;;22.70;71.70;;;;;;5095228;28;20423;-48
2021/08/16 09:43:45;;;;;;;1.70;1.10;;;22.70;71.70;;;;;;5090245;28;20047;-41
2021/08/16 09:46:15;;;;;;;2.65;1.27;;;22.60;71.70;;;;;;5092590;28;20403;-45
2021/08/16 09:48:43;;;;;;;1.85;1.13;;;22.70;71.70;;;;;;5094668;28;20228;-42
2021/08/16 09:51:18;;;;;;;1.65;1.08;;;22.70;71.70;;;;;;5095234;28;20084;-46
2021/08/16 09:53:45;;;;;;;1.20;1.00;;;22.70;71.70;;;;;;5093539;28;20063;-45
2021/08/16 09:56:11;;;;;;;1.90;1.02;;;22.70;71.60;;;;;;5094289;28;20044;-42
2021/08/16 09:58:37;;;;;;;2.95;1.27;;;22.70;71.60;;;;;;5094860;28;20118;-44
2021/08/16 10:01:03;;;;;;;2.17;1.50;;;22.70;71.70;;;;;;5094814;28;20488;-43
2021/08/16 10:03:30;;;;;;;4.28;1.20;;;22.70;71.60;;;;;;5094612;28;20114;-40
2021/08/16 10:05:57;;;;;;;1.33;1.17;;;22.70;71.60;;;;;;5088907;28;20040;-42
2021/08/16 10:08:24;;;;;;;1.80;1.20;;;22.70;71.60;;;;;;5094786;28;20044;-43
2021/08/16 10:10:53;;;;;;;5.93;1.52;;;22.70;71.60;;;;;;5094617;28;20131;-43
2021/08/16 10:13:22;;;;;;;2.78;1.60;;;22.70;70.80;;;;;;5087976;28;20412;-41
2021/08/16 10:15:59;;;;;;;2.80;1.42;;;22.60;70.80;;;;;;5093387;28;20044;-47
2021/08/16 10:18:28;;;;;;;2.22;1.33;;;22.50;70.90;;;;;;5094167;28;20044;-42
2021/08/16 10:20:54;;;;;;;3.33;1.60;;;22.50;71.00;;;;;;5093377;28;20048;-44
2021/08/16 10:23:24;;;;;;;3.33;1.73;;;22.50;71.20;;;;;;5093667;28;20071;-41
2021/08/16 10:25:54;;;;;;;3.70;1.60;;;22.50;71.30;;;;;;5093340;28;20462;-42
2021/08/16 10:28:26;;;;;;;3.75;1.40;;;22.50;71.40;;;;;;5094066;28;20044;-44
2021/08/16 10:30:53;;;;;;;3.63;1.63;;;22.50;71.60;;;;;;5094087;28;20055;-44
2021/08/16 10:33:19;;;;;;;2.45;1.15;;;22.50;71.60;;;;;;5093485;28;21708;-41
2021/08/16 10:35:46;;;;;;;2.85;1.40;;;22.50;71.70;;;;;;5092986;28;20561;-40
2021/08/16 10:38:13;;;;;;;2.22;1.33;;;22.60;71.90;;;;;;5093823;28;20043;-40
2021/08/16 10:40:44;;;;;;;3.72;1.40;;;22.60;72.00;;;;;;5093743;28;20080;-39
2021/08/16 10:43:11;;;;;;;3.08;1.80;;;22.50;72.00;;;;;;5094288;28;20120;-40
2021/08/16 10:45:51;;;;;;;2.55;1.30;;;22.60;72.10;;;;;;5093713;28;20476;-39
2021/08/16 10:48:23;;;;;;;2.75;1.73;;;22.60;72.10;;;;;;5093022;28;20390;-45
2021/08/16 10:50:49;;;;;;;5.10;1.80;;;22.60;72.20;;;;;;5093660;28;20048;-39
2021/08/16 10:53:14;;;;;;;5.18;1.42;;;22.60;72.20;;;;;;5093153;28;20458;-41
2021/08/16 10:55:42;;;;;;;3.47;1.85;;;22.60;72.20;;;;;;5092825;28;20072;-41
2021/08/16 10:58:09;;;;;;;2.58;1.30;;;22.60;72.20;;;;;;5093026;28;20055;-41
2021/08/16 11:00:38;;;;;;;3.00;1.23;;;22.60;72.20;;;;;;5093469;28;20106;-44
2021/08/16 11:03:04;;;;;;;2.78;1.20;;;22.60;72.20;;;;;;5093481;28;20048;-45
2021/08/16 11:05:35;;;;;;;2.13;1.48;;;22.60;72.20;;;;;;5092825;28;20494;-40
2021/08/16 11:08:03;;;;;;;2.13;1.38;;;22.60;72.90;;;;;;5092254;28;20130;-39
2021/08/16 11:10:43;;;;;;;3.70;1.55;;;22.60;72.20;;;;;;5092982;28;20051;-46
2021/08/16 11:13:14;;;;;;;2.50;1.80;;;22.60;72.20;;;;;;5093241;28;20044;-43
2021/08/16 11:15:40;;;;;;;3.03;1.60;;;22.60;72.20;;;;;;5093151;28;20044;-41
2021/08/16 11:18:20;;;;;;;2.78;1.70;;;22.60;72.20;;;;;;5092399;28;20051;-41
2021/08/16 11:20:59;;;;;;;5.03;1.75;;;22.60;72.20;;;;;;5093155;28;20036;-38
2021/08/16 11:23:25;;;;;;;4.18;1.45;;;22.60;72.20;;;;;;5092616;28;20101;-40
2021/08/16 11:25:56;;;;;;;3.10;1.42;;;22.60;72.20;;;;;;5092292;28;20093;-48
2021/08/16 11:28:25;;;;;;;2.33;1.48;;;22.60;72.20;;;;;;5092226;28;20056;-40
2021/08/16 11:31:06;;;;;;;2.47;1.40;;;22.60;72.20;;;;;;5090387;28;20090;-44
2021/08/16 11:33:33;;;;;;;3.55;1.25;;;22.60;72.90;;;;;;5087899;28;20392;-42
2021/08/16 11:36:07;;;;;;;3.58;1.20;;;22.60;72.20;;;;;;5092812;28;20044;-42
2021/08/16 11:38:33;;;;;;;2.58;1.40;;;22.60;72.20;;;;;;5092117;28;20044;-43
2021/08/16 11:41:11;;;;;;;2.05;1.25;;;22.70;72.30;;;;;;5091990;28;20089;-43
2021/08/16 11:43:38;;;;;;;2.17;1.35;;;22.70;72.30;;;;;;5091788;28;20075;-44
2021/08/16 11:46:14;;;;;;;4.43;1.80;;;22.70;72.30;;;;;;5093135;28;20094;-41
2021/08/16 11:48:53;;;;;;;1.70;1.40;;;22.70;72.30;;;;;;5091907;28;20136;-42
2021/08/16 11:51:20;;;;;;;2.72;1.13;;;22.80;72.40;;;;;;5092926;28;20048;-46
2021/08/16 11:53:48;;;;;;;9.25;2.78;;;22.70;72.40;;;;;;5092896;28;20476;-44
2021/08/16 11:56:13;;;;;;;8.13;2.47;;;22.70;71.70;;;;;;5092744;28;20051;-42
2021/08/16 11:58:44;;;;;;;9.98;2.30;;;22.60;70.50;;;;;;5092526;28;20048;-45
2021/08/16 12:01:11;;;;;;;5.47;2.10;;;22.60;69.90;;;;;;5081498;28;20561;-42
2021/08/16 12:03:37;;;;;;;7.38;2.10;;;22.60;69.40;;;;;;5093276;28;20079;-43
2021/08/16 12:06:10;;;;;;;10.25;2.28;;;22.60;68.90;;;;;;5093240;28;20059;-43
2021/08/16 12:08:36;;;;;;;6.10;2.20;;;22.60;68.40;;;;;;5092571;28;20506;-44
2021/08/16 12:11:12;;;;;;;6.85;2.25;;;22.50;68.00;;;;;;5092588;28;20052;-44
2021/08/16 12:13:38;;;;;;;10.13;2.83;;;22.50;67.50;;;;;;5092576;28;20117;-44
2021/08/16 12:16:04;;;;;;;8.13;2.13;;;22.50;67.30;;;;;;5092431;28;20055;-40
2021/08/16 12:18:31;;;;;;;8.00;2.20;;;22.50;67.00;;;;;;5092211;28;20044;-43
2021/08/16 12:20:57;;;;;;;5.53;1.92;;;22.50;66.70;;;;;;5092833;28;20085;-42
2021/08/16 12:23:28;;;;;;;7.47;2.65;;;22.50;66.50;;;;;;5092501;28;20093;-43
2021/08/16 12:25:54;;;;;;;4.72;2.38;;;22.50;66.10;;;;;;5092370;28;20044;-41
2021/08/16 12:28:20;;;;;;;11.35;2.47;;;22.50;66.60;;;;;;5091851;28;20062;-44
2021/08/16 12:30:47;;;;;;;8.95;2.05;;;22.50;65.40;;;;;;5092720;28;20472;-48
2021/08/16 12:33:15;;;;;;;11.18;2.60;;;22.50;65.50;;;;;;5092606;28;20098;-40
2021/08/16 12:35:52;;;;;;;8.13;2.40;;;22.50;65.70;;;;;;5092913;28;20048;-44
2021/08/16 12:38:28;;;;;;;4.03;1.98;;;22.50;65.90;;;;;;5092584;28;20044;-47
2021/08/16 12:41:06;;;;;;;6.70;2.45;;;22.50;66.20;;;;;;5092414;28;20044;-45
2021/08/16 12:43:36;;;;;;;8.40;2.67;;;22.50;66.40;;;;;;5092534;28;20044;-48
2021/08/16 12:46:02;;;;;;;5.40;2.40;;;22.50;66.70;;;;;;5092925;28;20051;-47